createdAt,value
2022-09-20T00:01:57.223Z,10.00
2022-09-20T00:04:28.463Z,10.00
2022-09-20T00:06:59.803Z,10.00
2022-09-20T00:09:31.340Z,9.90
2022-09-20T00:12:03.283Z,9.90
2022-09-20T00:14:34.671Z,9.80
2022-09-20T00:17:06.150Z,9.80
2022-09-20T00:19:37.708Z,9.60
2022-09-20T00:22:09.064Z,9.50
2022-09-20T00:24:40.355Z,9.50
2022-09-20T00:27:11.768Z,9.40
2022-09-20T00:29:43.100Z,9.20
2022-09-20T00:32:14.495Z,9.20
2022-09-20T00:35:03.621Z,9.10
2022-09-20T00:37:35.111Z,9.00
2022-09-20T00:40:09.502Z,9.00
2022-09-20T00:42:40.818Z,8.90
2022-09-20T00:45:18.933Z,8.90
2022-09-20T00:47:54.448Z,8.90
2022-09-20T00:50:33.162Z,8.80
2022-09-20T00:53:09.187Z,8.70
2022-09-20T00:55:45.572Z,8.70
2022-09-20T00:58:18.492Z,8.70
2022-09-20T01:00:53.413Z,8.70
2022-09-20T01:03:27.851Z,8.60
2022-09-20T01:06:02.589Z,8.60
2022-09-20T01:08:35.211Z,8.50
2022-09-20T01:11:06.916Z,8.50
2022-09-20T01:13:38.170Z,8.30
2022-09-20T01:16:11.347Z,8.30
2022-09-20T01:18:44.488Z,8.30
2022-09-20T01:21:17.194Z,8.20
2022-09-20T01:23:53.188Z,8.20
2022-09-20T01:27:01.422Z,8.10
2022-09-20T01:29:43.511Z,8.20
2022-09-20T01:32:17.704Z,8.10
2022-09-20T01:34:52.955Z,8.10
2022-09-20T01:37:27.570Z,8.00
2022-09-20T01:40:04.174Z,8.00
2022-09-20T01:42:41.630Z,8.10
2022-09-20T01:45:16.577Z,8.00
2022-09-20T01:47:51.679Z,8.00
2022-09-20T01:50:28.877Z,8.00
2022-09-20T01:53:39.078Z,8.00
2022-09-20T01:56:26.302Z,7.90
2022-09-20T01:59:24.174Z,7.90
2022-09-20T02:02:03.869Z,7.90
2022-09-20T02:04:52.470Z,7.80
2022-09-20T02:07:40.824Z,7.90
2022-09-20T02:10:41.211Z,7.90
2022-09-20T02:13:15.213Z,7.80
2022-09-20T02:16:00.583Z,7.80
2022-09-20T02:18:40.613Z,7.80
2022-09-20T02:21:15.829Z,7.80
2022-09-20T02:23:50.397Z,7.90
2022-09-20T02:26:36.067Z,7.90
2022-09-20T02:29:14.960Z,7.80
2022-09-20T02:32:14.789Z,7.80
2022-09-20T02:34:58.875Z,7.80
2022-09-20T02:37:58.260Z,7.70
2022-09-20T02:40:42.850Z,7.80
2022-09-20T02:43:18.852Z,7.70
2022-09-20T02:45:54.267Z,7.70
2022-09-20T02:48:28.621Z,7.70
2022-09-20T02:51:03.623Z,7.70
2022-09-20T02:53:38.860Z,7.70
2022-09-20T02:56:14.071Z,7.80
2022-09-20T02:58:51.814Z,7.80
2022-09-20T03:01:29.578Z,7.70
2022-09-20T03:04:05.512Z,7.70
2022-09-20T03:06:40.699Z,7.70
2022-09-20T03:09:17.182Z,7.60
2022-09-20T03:11:53.354Z,7.60
2022-09-20T03:14:27.966Z,7.70
2022-09-20T03:17:05.980Z,7.70
2022-09-20T03:19:46.016Z,7.60
2022-09-20T03:22:22.851Z,7.60
2022-09-20T03:25:02.380Z,7.60
2022-09-20T03:27:37.962Z,7.60
2022-09-20T03:30:22.755Z,7.60
2022-09-20T03:32:59.626Z,7.60
2022-09-20T03:35:41.011Z,7.50
2022-09-20T03:38:18.571Z,7.50
2022-09-20T03:44:18.547Z,7.50
2022-09-20T03:46:52.859Z,7.50
2022-09-20T03:49:47.900Z,7.50
2022-09-20T03:52:27.044Z,7.50
2022-09-20T03:55:11.786Z,7.50
2022-09-20T03:58:08.713Z,7.40
2022-09-20T04:00:46.270Z,7.40
2022-09-20T04:03:42.263Z,7.40
2022-09-20T04:06:49.864Z,7.40
2022-09-20T04:12:34.093Z,7.40
2022-09-20T04:15:12.237Z,7.50
2022-09-20T04:17:48.508Z,7.50
2022-09-20T04:20:23.881Z,7.50
2022-09-20T04:22:59.229Z,7.50
2022-09-20T04:25:35.262Z,7.40
2022-09-20T04:28:11.802Z,7.40
2022-09-20T04:30:44.108Z,7.40
2022-09-20T04:33:20.385Z,7.40
2022-09-20T04:36:15.681Z,7.30
2022-09-20T04:38:49.637Z,7.30
2022-09-20T04:41:37.741Z,7.20
2022-09-20T04:44:58.658Z,7.10
2022-09-20T04:48:16.287Z,7.00
2022-09-20T04:51:02.406Z,6.90
2022-09-20T04:54:29.841Z,6.90
2022-09-20T04:59:54.135Z,6.80
2022-09-20T05:02:41.980Z,6.90
2022-09-20T05:09:06.910Z,6.90
2022-09-20T05:11:58.257Z,6.90
2022-09-20T05:14:41.601Z,7.00
2022-09-20T05:17:26.008Z,6.90
2022-09-20T05:20:10.320Z,7.00
2022-09-20T05:22:58.246Z,7.00
2022-09-20T05:25:41.662Z,7.00
2022-09-20T05:28:18.450Z,7.00
2022-09-20T05:30:54.091Z,7.10
2022-09-20T05:33:29.700Z,7.10
2022-09-20T05:36:07.345Z,7.10
2022-09-20T05:38:47.222Z,7.10
2022-09-20T05:41:25.968Z,7.20
2022-09-20T05:44:01.632Z,7.20
2022-09-20T05:46:39.111Z,7.10
2022-09-20T05:49:17.969Z,7.10
2022-09-20T05:52:18.916Z,7.20
2022-09-20T05:55:26.477Z,7.20
2022-09-20T05:58:11.485Z,7.30
2022-09-20T06:00:46.027Z,7.30
2022-09-20T06:03:21.419Z,7.40
2022-09-20T06:05:57.193Z,8.00
2022-09-20T06:08:40.056Z,9.10
2022-09-20T06:11:18.382Z,10.20
2022-09-20T06:14:09.491Z,11.20
2022-09-20T06:16:46.526Z,11.70
2022-09-20T06:19:23.696Z,12.60
2022-09-20T06:22:03.066Z,13.10
2022-09-20T06:24:37.091Z,13.40
2022-09-20T06:27:13.206Z,13.40
2022-09-20T06:29:48.351Z,13.40
2022-09-20T06:32:20.134Z,13.50
2022-09-20T06:34:52.064Z,13.60
2022-09-20T06:37:49.817Z,13.60
2022-09-20T06:40:48.059Z,13.60
2022-09-20T06:43:19.471Z,14.00
2022-09-20T06:45:51.004Z,14.00
2022-09-20T06:48:22.368Z,13.80
2022-09-20T06:50:54.241Z,13.30
2022-09-20T06:53:29.005Z,12.90
2022-09-20T06:56:00.803Z,12.40
2022-09-20T06:58:32.321Z,11.90
2022-09-20T07:01:03.739Z,11.50
2022-09-20T07:03:35.145Z,11.30
2022-09-20T07:06:07.239Z,11.10
2022-09-20T07:08:39.341Z,11.00
2022-09-20T07:11:14.865Z,10.90
2022-09-20T07:13:46.561Z,10.70
2022-09-20T07:16:17.846Z,10.70
2022-09-20T07:18:51.633Z,10.70
2022-09-20T07:21:23.514Z,10.70
2022-09-20T07:23:55.106Z,10.80
2022-09-20T07:26:29.029Z,10.90
2022-09-20T07:29:01.936Z,10.90
2022-09-20T07:31:33.391Z,10.90
2022-09-20T07:34:04.676Z,11.00
2022-09-20T07:36:36.145Z,11.00
2022-09-20T07:39:07.511Z,11.10
2022-09-20T07:41:39.071Z,11.10
2022-09-20T07:44:29.480Z,11.20
2022-09-20T07:47:02.062Z,11.30
2022-09-20T07:49:33.394Z,11.40
2022-09-20T07:52:05.803Z,11.50
2022-09-20T07:54:37.170Z,11.50
2022-09-20T07:57:08.594Z,11.50
2022-09-20T07:59:40.050Z,11.60
2022-09-20T08:02:14.592Z,11.70
2022-09-20T08:04:47.217Z,11.80
2022-09-20T08:07:18.583Z,12.00
2022-09-20T08:09:48.805Z,12.10
2022-09-20T08:14:53.588Z,12.20
2022-09-20T08:17:24.835Z,12.30
2022-09-20T08:19:56.193Z,12.40
2022-09-20T08:22:28.088Z,12.30
2022-09-20T08:24:59.402Z,12.40
2022-09-20T08:27:31.740Z,12.50
2022-09-20T08:30:03.061Z,12.50
2022-09-20T08:32:34.425Z,12.50
2022-09-20T08:35:07.731Z,12.60
2022-09-20T08:37:39.177Z,12.70
2022-09-20T08:40:15.605Z,12.80
2022-09-20T08:42:47.133Z,12.90
2022-09-20T08:45:23.445Z,12.90
2022-09-20T08:47:58.831Z,13.00
2022-09-20T08:50:30.830Z,13.00
2022-09-20T08:53:04.795Z,13.10
2022-09-20T08:55:37.907Z,13.30
2022-09-20T08:58:13.438Z,13.40
2022-09-20T09:00:47.584Z,13.50
2022-09-20T09:03:20.012Z,13.40
2022-09-20T09:05:53.186Z,13.30
2022-09-20T09:08:27.532Z,13.30
2022-09-20T09:11:01.322Z,13.40
2022-09-20T09:13:35.909Z,13.70
2022-09-20T09:16:12.789Z,13.80
2022-09-20T09:18:45.840Z,13.80
2022-09-20T09:21:21.885Z,13.70
2022-09-20T09:24:00.189Z,13.70
2022-09-20T09:26:37.924Z,13.80
2022-09-20T09:29:14.496Z,13.90
2022-09-20T09:31:46.982Z,14.00
2022-09-20T09:34:29.633Z,14.00
2022-09-20T09:37:01.064Z,14.10
2022-09-20T09:39:34.717Z,14.40
2022-09-20T09:42:22.023Z,14.50
2022-09-20T09:44:53.306Z,14.60
2022-09-20T09:47:28.993Z,14.70
2022-09-20T09:50:06.127Z,14.70
2022-09-20T09:52:35.571Z,14.90
2022-09-20T09:55:08.912Z,15.00
2022-09-20T09:57:46.192Z,15.00
2022-09-20T10:00:22.356Z,15.10
2022-09-20T10:03:14.893Z,15.00
2022-09-20T10:05:51.261Z,14.90
2022-09-20T10:08:26.756Z,15.00
2022-09-20T10:11:05.257Z,14.90
2022-09-20T10:13:41.201Z,14.90
2022-09-20T10:16:18.299Z,14.90
2022-09-20T10:18:53.835Z,14.90
2022-09-20T10:21:41.497Z,15.00
2022-09-20T10:24:20.429Z,15.20
2022-09-20T10:27:03.723Z,15.10
2022-09-20T10:29:42.728Z,15.00
2022-09-20T10:32:26.092Z,15.10
2022-09-20T10:35:16.951Z,15.40
2022-09-20T10:37:55.244Z,15.50
2022-09-20T10:40:33.527Z,15.70
2022-09-20T10:43:16.940Z,15.70
2022-09-20T10:48:27.732Z,15.70
2022-09-20T10:51:02.397Z,15.80
2022-09-20T10:53:38.077Z,15.90
2022-09-20T10:56:17.679Z,16.00
2022-09-20T10:59:17.806Z,16.10
2022-09-20T11:01:58.854Z,16.30
2022-09-20T11:04:41.815Z,16.30
2022-09-20T11:07:16.688Z,16.20
2022-09-20T11:09:51.796Z,16.20
2022-09-20T11:12:27.403Z,16.30
2022-09-20T11:15:01.679Z,16.40
2022-09-20T11:17:36.006Z,16.40
2022-09-20T11:20:10.954Z,16.20
2022-09-20T11:22:46.051Z,16.30
2022-09-20T11:25:23.097Z,16.40
2022-09-20T11:27:56.927Z,16.70
2022-09-20T11:30:30.057Z,16.70
2022-09-20T11:33:04.908Z,16.70
2022-09-20T11:35:38.627Z,16.70
2022-09-20T11:38:14.365Z,16.60
2022-09-20T11:40:49.255Z,16.70
2022-09-20T11:43:21.508Z,16.70
2022-09-20T11:45:56.386Z,16.40
2022-09-20T11:48:31.809Z,16.30
2022-09-20T11:51:24.252Z,16.30
2022-09-20T11:54:04.038Z,16.50
2022-09-20T11:56:35.520Z,16.60
2022-09-20T11:59:09.089Z,16.50
2022-09-20T12:01:42.575Z,16.30
2022-09-20T12:04:34.295Z,16.10
2022-09-20T12:06:58.884Z,16.00
2022-09-20T12:09:34.337Z,16.10
2022-09-20T12:12:27.622Z,16.20
2022-09-20T12:15:01.679Z,16.30
2022-09-20T12:18:28.189Z,16.50
2022-09-20T12:21:01.967Z,16.80
2022-09-20T12:24:08.995Z,16.90
2022-09-20T12:26:47.594Z,16.90
2022-09-20T12:29:55.198Z,17.00
2022-09-20T12:36:17.103Z,17.10
2022-09-20T12:38:52.899Z,17.30
2022-09-20T12:41:28.564Z,17.40
2022-09-20T12:44:20.926Z,17.40
2022-09-20T12:46:56.433Z,17.50
2022-09-20T12:50:01.707Z,17.60
2022-09-20T12:53:00.587Z,17.60
2022-09-20T12:55:46.355Z,17.50
2022-09-20T12:58:32.269Z,17.60
2022-09-20T13:01:35.349Z,17.60
2022-09-20T13:04:58.366Z,17.80
2022-09-20T13:07:56.504Z,17.80
2022-09-20T13:10:31.705Z,17.90
2022-09-20T13:13:08.681Z,18.00
2022-09-20T13:15:40.747Z,17.90
2022-09-20T13:18:15.589Z,18.00
2022-09-20T13:20:47.693Z,18.00
2022-09-20T13:23:24.493Z,18.00
2022-09-20T13:25:58.267Z,17.90
2022-09-20T13:28:34.223Z,17.80
2022-09-20T13:31:27.660Z,17.80
2022-09-20T13:34:14.401Z,17.80
2022-09-20T13:36:46.527Z,17.80
2022-09-20T13:39:31.317Z,17.90
2022-09-20T13:42:12.081Z,17.80
2022-09-20T13:44:44.802Z,17.80
2022-09-20T13:47:29.146Z,17.90
2022-09-20T13:50:05.814Z,17.90
2022-09-20T13:52:46.797Z,17.90
2022-09-20T13:55:30.230Z,17.90
2022-09-20T13:58:05.004Z,18.00
2022-09-20T14:00:38.676Z,18.00
2022-09-20T14:03:14.720Z,18.00
2022-09-20T14:05:49.502Z,18.00
2022-09-20T14:08:25.161Z,18.00
2022-09-20T14:11:07.990Z,17.80
2022-09-20T14:13:41.657Z,17.80
2022-09-20T14:16:13.996Z,17.90
2022-09-20T14:18:47.375Z,17.90
2022-09-20T14:21:24.962Z,17.90
2022-09-20T14:23:59.743Z,17.90
2022-09-20T14:26:34.703Z,17.90
2022-09-20T14:29:30.231Z,17.90
2022-09-20T14:32:04.582Z,17.90
2022-09-20T14:34:38.792Z,17.90
2022-09-20T14:37:13.173Z,17.80
2022-09-20T14:39:50.835Z,17.80
2022-09-20T14:42:25.600Z,17.90
2022-09-20T14:44:57.388Z,17.90
2022-09-20T14:47:30.658Z,18.00
2022-09-20T14:50:03.683Z,18.00
2022-09-20T14:52:41.895Z,18.00
2022-09-20T14:55:27.943Z,18.00
2022-09-20T14:58:05.092Z,18.00
2022-09-20T15:00:50.654Z,18.10
2022-09-20T15:03:27.291Z,18.10
2022-09-20T15:05:59.011Z,18.10
2022-09-20T15:08:30.514Z,18.10
2022-09-20T15:11:02.186Z,18.00
2022-09-20T15:13:35.555Z,17.90
2022-09-20T15:16:07.534Z,17.90
2022-09-20T15:18:42.235Z,17.90
2022-09-20T15:21:13.968Z,17.90
2022-09-20T15:23:45.301Z,17.80
2022-09-20T15:26:18.662Z,17.70
2022-09-20T15:28:50.700Z,17.40
2022-09-20T15:31:22.148Z,17.20
2022-09-20T15:33:53.983Z,17.00
2022-09-20T15:36:27.004Z,17.10
2022-09-20T15:38:58.348Z,17.00
2022-09-20T15:41:31.442Z,16.90
2022-09-20T15:44:03.778Z,16.90
2022-09-20T15:46:35.624Z,16.80
2022-09-20T15:49:08.952Z,16.70
2022-09-20T15:51:40.450Z,16.50
2022-09-20T15:54:14.638Z,16.60
2022-09-20T15:56:46.036Z,16.50
2022-09-20T15:59:19.078Z,16.50
2022-09-20T16:01:51.762Z,16.40
2022-09-20T16:04:23.950Z,16.40
2022-09-20T16:06:55.634Z,16.20
2022-09-20T16:09:26.924Z,16.10
2022-09-20T16:12:00.186Z,16.00
2022-09-20T16:14:31.653Z,15.90
2022-09-20T16:17:03.148Z,15.90
2022-09-20T16:19:34.750Z,15.80
2022-09-20T16:22:06.287Z,15.70
2022-09-20T16:24:38.633Z,15.60
2022-09-20T16:27:10.868Z,15.40
2022-09-20T16:29:42.251Z,15.20
2022-09-20T16:32:14.644Z,15.20
2022-09-20T16:34:46.184Z,15.20
2022-09-20T16:37:17.663Z,15.10
2022-09-20T16:39:49.156Z,15.10
2022-09-20T16:42:21.048Z,15.00
2022-09-20T16:44:52.345Z,15.00
2022-09-20T16:47:25.149Z,15.00
2022-09-20T16:49:56.322Z,15.00
2022-09-20T16:52:27.689Z,15.00
2022-09-20T16:54:59.143Z,15.00
2022-09-20T16:57:32.252Z,15.00
2022-09-20T17:00:04.325Z,15.10
2022-09-20T17:02:36.104Z,15.00
2022-09-20T17:05:09.699Z,15.00
2022-09-20T17:07:42.028Z,14.90
2022-09-20T17:10:13.552Z,14.80
2022-09-20T17:12:46.696Z,14.70
2022-09-20T17:15:18.256Z,14.50
2022-09-20T17:17:49.968Z,14.40
2022-09-20T17:20:23.189Z,14.40
2022-09-20T17:22:55.895Z,14.30
2022-09-20T17:25:27.423Z,14.20
2022-09-20T17:27:58.777Z,14.10
2022-09-20T17:30:31.194Z,14.00
2022-09-20T17:33:02.635Z,13.90
2022-09-20T17:35:34.152Z,13.80
2022-09-20T17:38:05.838Z,13.70
2022-09-20T17:40:37.344Z,13.70
2022-09-20T17:43:08.672Z,13.60
2022-09-20T17:45:40.120Z,13.50
2022-09-20T17:48:11.571Z,13.40
2022-09-20T17:50:44.013Z,13.40
2022-09-20T17:53:15.396Z,13.30
2022-09-20T17:55:54.256Z,13.30
2022-09-20T17:58:26.604Z,13.20
2022-09-20T18:01:07.729Z,13.20
2022-09-20T18:03:40.046Z,13.10
2022-09-20T18:06:20.251Z,13.10
2022-09-20T18:08:53.686Z,13.10
2022-09-20T18:11:28.435Z,13.00
2022-09-20T18:14:01.134Z,12.90
2022-09-20T18:16:33.931Z,12.80
2022-09-20T18:19:06.090Z,12.80
2022-09-20T18:21:40.673Z,12.70
2022-09-20T18:24:13.314Z,12.70
2022-09-20T18:26:44.775Z,12.60
2022-09-20T18:29:18.417Z,12.60
2022-09-20T18:31:53.126Z,12.60
2022-09-20T18:34:26.912Z,12.50
2022-09-20T18:36:59.813Z,12.50
2022-09-20T18:39:33.436Z,12.40
2022-09-20T18:42:05.844Z,12.30
2022-09-20T18:44:38.230Z,12.30
2022-09-20T18:47:09.601Z,12.20
2022-09-20T18:49:41.013Z,12.10
2022-09-20T18:52:13.090Z,12.10
2022-09-20T18:54:49.048Z,12.00
2022-09-20T18:57:21.974Z,11.90
2022-09-20T18:59:56.435Z,11.90
2022-09-20T19:02:56.588Z,11.80
2022-09-20T19:05:35.140Z,11.70
2022-09-20T19:08:14.425Z,11.70
2022-09-20T19:10:49.989Z,11.80
2022-09-20T19:13:28.841Z,11.70
2022-09-20T19:16:15.165Z,11.60
2022-09-20T19:19:05.930Z,11.60
2022-09-20T19:21:43.178Z,11.50
2022-09-20T19:24:22.503Z,11.50
2022-09-20T19:26:54.410Z,11.50
2022-09-20T19:29:28.355Z,11.50
2022-09-20T19:32:01.936Z,11.40
2022-09-20T19:34:35.303Z,11.40
2022-09-20T19:37:18.041Z,11.40
2022-09-20T19:39:57.159Z,11.40
2022-09-20T19:42:32.013Z,11.50
2022-09-20T19:45:07.451Z,11.50
2022-09-20T19:47:44.650Z,11.50
2022-09-20T19:50:18.412Z,11.60
2022-09-20T19:52:50.519Z,11.60
2022-09-20T19:55:22.917Z,11.60
2022-09-20T19:57:55.758Z,11.60
2022-09-20T20:00:28.693Z,11.60
2022-09-20T20:03:01.131Z,11.70
2022-09-20T20:05:33.827Z,11.70
2022-09-20T20:08:16.040Z,11.60
2022-09-20T20:10:55.060Z,11.60
2022-09-20T20:13:48.952Z,11.60
2022-09-20T20:16:25.090Z,11.60
2022-09-20T20:19:05.960Z,11.60
2022-09-20T20:21:40.666Z,11.60
2022-09-20T20:24:20.083Z,11.60
2022-09-20T20:26:51.435Z,11.50
2022-09-20T20:29:23.081Z,11.50
2022-09-20T20:31:54.856Z,11.40
2022-09-20T20:34:27.135Z,11.50
2022-09-20T20:37:00.920Z,11.40
2022-09-20T20:39:32.723Z,11.40
2022-09-20T20:42:06.264Z,11.40
2022-09-20T20:44:37.749Z,11.30
2022-09-20T20:47:09.606Z,11.20
2022-09-20T20:49:42.253Z,11.20
2022-09-20T20:52:13.790Z,11.10
2022-09-20T20:54:45.250Z,11.10
2022-09-20T20:57:18.527Z,11.10
2022-09-20T20:59:49.845Z,11.10
2022-09-20T21:02:21.605Z,11.00
2022-09-20T21:04:52.994Z,11.10
2022-09-20T21:07:24.849Z,11.10
2022-09-20T21:09:56.437Z,11.00
2022-09-20T21:12:28.916Z,11.00
2022-09-20T21:15:00.466Z,10.90
2022-09-20T21:17:36.076Z,10.90
2022-09-20T21:20:05.969Z,10.90
2022-09-20T21:22:37.325Z,10.90
2022-09-20T21:25:10.151Z,10.80
2022-09-20T21:27:41.965Z,10.80
2022-09-20T21:30:15.187Z,10.80
2022-09-20T21:32:46.534Z,10.70
2022-09-20T21:35:17.991Z,10.70
2022-09-20T21:37:49.540Z,10.60
2022-09-20T21:40:21.015Z,10.50
2022-09-20T21:42:55.265Z,10.40
2022-09-20T21:45:28.157Z,10.40
2022-09-20T21:47:59.620Z,10.30
2022-09-20T21:50:30.944Z,10.30
2022-09-20T21:53:00.756Z,10.20
2022-09-20T21:55:32.062Z,10.20
2022-09-20T21:58:04.851Z,10.30
2022-09-20T22:00:36.226Z,10.30
2022-09-20T22:03:07.724Z,10.30
2022-09-20T22:05:39.064Z,10.30
2022-09-20T22:08:10.494Z,10.20
2022-09-20T22:10:41.888Z,10.20
2022-09-20T22:13:13.388Z,10.10
2022-09-20T22:15:44.657Z,10.10
2022-09-20T22:18:16.006Z,10.10
2022-09-20T22:20:47.653Z,10.00
2022-09-20T22:23:19.335Z,10.00
2022-09-20T22:25:59.546Z,9.90
2022-09-20T22:28:30.891Z,10.00
2022-09-20T22:31:07.606Z,10.00
2022-09-20T22:33:42.532Z,10.00
2022-09-20T22:36:15.817Z,9.90
2022-09-20T22:38:47.626Z,9.90
2022-09-20T22:41:20.765Z,9.90
2022-09-20T22:43:52.768Z,10.00
2022-09-20T22:46:25.937Z,10.00
2022-09-20T22:48:57.623Z,9.90
2022-09-20T22:51:33.127Z,9.90
2022-09-20T22:54:09.283Z,9.90
2022-09-20T22:56:42.303Z,9.90
2022-09-20T22:59:15.129Z,9.80
2022-09-20T23:01:47.856Z,9.70
2022-09-20T23:04:22.784Z,9.70
2022-09-20T23:06:55.369Z,9.50
2022-09-20T23:09:28.807Z,9.40
2022-09-20T23:12:00.020Z,9.30
2022-09-20T23:14:31.211Z,9.20
2022-09-20T23:17:02.340Z,9.10
2022-09-20T23:19:32.328Z,9.10
2022-09-20T23:22:03.402Z,9.10
2022-09-20T23:24:33.320Z,9.10
2022-09-20T23:27:04.486Z,9.10
2022-09-20T23:29:36.163Z,9.10
2022-09-20T23:32:07.878Z,9.10
2022-09-20T23:34:39.076Z,9.10
2022-09-20T23:37:09.555Z,9.10
2022-09-20T23:39:41.704Z,9.10
2022-09-20T23:42:12.945Z,9.10
2022-09-20T23:44:44.141Z,9.10
2022-09-20T23:47:15.363Z,9.10
2022-09-20T23:49:46.542Z,9.10
2022-09-20T23:52:17.941Z,9.00
2022-09-20T23:54:49.380Z,8.90
2022-09-20T23:57:20.773Z,8.90
2022-09-20T23:59:52.879Z,8.80
